Time;durP1;ratioP1;P1;durP2;ratioP2;P2;SDS_P1;SDS_P2;PMS_P1;PMS_P2;Temp;Humidity;BMP_temperature;BMP_pressure;BME280_temperature;BME280_humidity;BME280_pressure;Samples;Min_cycle;Max_cycle;Signal;HPM_P1;HPM_P2
2021/06/25 00:00:58;;;;;;;4.90;4.40;;;20.00;87.90;;;;;;4992891;28;20514;-79
2021/06/25 00:03:23;;;;;;;5.10;4.60;;;20.00;88.10;;;;;;4992875;28;20037;-80
2021/06/25 00:05:49;;;;;;;6.13;4.57;;;20.00;87.90;;;;;;4993195;28;20509;-80
2021/06/25 00:08:15;;;;;;;6.57;5.10;;;20.00;87.90;;;;;;4992974;28;20026;-79
2021/06/25 00:10:40;;;;;;;5.78;4.55;;;20.00;87.80;;;;;;4992784;28;20031;-78
2021/06/25 00:13:06;;;;;;;6.43;5.22;;;19.90;87.80;;;;;;4993096;28;20030;-79
2021/06/25 00:15:32;;;;;;;6.38;4.63;;;19.90;87.90;;;;;;4992745;28;20026;-79
2021/06/25 00:17:58;;;;;;;6.45;5.15;;;19.90;88.10;;;;;;4992412;28;20109;-79
2021/06/25 00:20:25;;;;;;;6.22;4.75;;;19.90;87.90;;;;;;4992010;28;20046;-78
2021/06/25 00:22:51;;;;;;;6.00;5.32;;;19.90;87.70;;;;;;4992993;28;20026;-79
2021/06/25 00:25:17;;;;;;;6.65;5.50;;;19.90;87.70;;;;;;4992911;28;20038;-80
2021/06/25 00:27:42;;;;;;;7.60;5.28;;;19.90;87.70;;;;;;5007397;28;20612;-79
2021/06/25 00:30:09;;;;;;;7.45;5.35;;;19.90;87.70;;;;;;4992713;28;20068;-79
2021/06/25 00:32:34;;;;;;;5.88;5.20;;;19.90;87.50;;;;;;4991231;28;20058;-78
2021/06/25 00:35:00;;;;;;;6.90;5.15;;;19.90;87.40;;;;;;4992541;28;20061;-77
2021/06/25 00:37:26;;;;;;;7.45;5.85;;;19.90;87.40;;;;;;4992212;28;20022;-78
2021/06/25 00:39:52;;;;;;;5.70;4.63;;;19.90;87.60;;;;;;4992693;28;20037;-79
2021/06/25 00:42:18;;;;;;;6.28;4.88;;;19.80;87.30;;;;;;4992243;28;20014;-81
2021/06/25 00:44:44;;;;;;;6.78;5.35;;;19.80;87.20;;;;;;4991626;28;20049;-79
2021/06/25 00:47:10;;;;;;;6.95;5.75;;;19.80;87.30;;;;;;4992289;28;20026;-78
2021/06/25 00:49:40;;;;;;;9.07;6.20;;;19.80;87.20;;;;;;4991659;28;20034;-78
2021/06/25 00:52:07;;;;;;;7.03;5.80;;;19.80;87.10;;;;;;4991731;28;20026;-79
2021/06/25 00:54:33;;;;;;;9.13;6.30;;;19.80;87.20;;;;;;4991989;28;20505;-77
2021/06/25 00:56:58;;;;;;;6.88;5.97;;;19.80;87.30;;;;;;4992269;28;20093;-77
2021/06/25 00:59:24;;;;;;;9.55;5.80;;;19.80;87.10;;;;;;4991750;28;20057;-77
2021/06/25 01:01:50;;;;;;;6.97;6.25;;;19.80;87.10;;;;;;4992526;28;20038;-77
2021/06/25 01:04:16;;;;;;;6.85;5.78;;;19.80;87.00;;;;;;4992079;28;20506;-78
2021/06/25 01:06:42;;;;;;;7.68;6.18;;;19.80;87.20;;;;;;4991853;28;20037;-77
2021/06/25 01:09:08;;;;;;;8.57;6.30;;;19.80;87.00;;;;;;4992016;28;20045;-81
2021/06/25 01:11:36;;;;;;;7.68;5.65;;;19.80;87.20;;;;;;5006231;28;20556;-81
2021/06/25 01:14:02;;;;;;;6.60;5.93;;;19.80;87.10;;;;;;4992079;28;20028;-77
2021/06/25 01:16:28;;;;;;;6.43;5.80;;;19.80;87.10;;;;;;4990927;28;20025;-78
2021/06/25 01:18:54;;;;;;;8.52;5.40;;;19.70;87.10;;;;;;4991202;28;20037;-76
2021/06/25 01:21:20;;;;;;;7.80;6.32;;;19.70;87.00;;;;;;4991196;28;20022;-76
2021/06/25 01:23:46;;;;;;;6.85;5.75;;;19.70;87.00;;;;;;4991511;28;20096;-76
2021/06/25 01:26:12;;;;;;;7.68;6.05;;;19.70;87.00;;;;;;4991630;28;20478;-76
2021/06/25 01:28:38;;;;;;;7.10;5.60;;;19.70;87.10;;;;;;4991470;28;20037;-77
2021/06/25 01:31:04;;;;;;;6.60;5.90;;;19.70;87.10;;;;;;4991835;28;20019;-76
2021/06/25 01:33:33;;;;;;;7.50;6.38;;;19.70;87.10;;;;;;4991253;28;20109;-77
2021/06/25 01:35:59;;;;;;;7.90;6.18;;;19.70;87.10;;;;;;4991760;28;20026;-77
2021/06/25 01:38:25;;;;;;;8.90;6.15;;;19.70;87.10;;;;;;4991616;28;20395;-78
2021/06/25 01:40:52;;;;;;;6.40;5.50;;;19.70;87.10;;;;;;4991773;28;20018;-78
2021/06/25 01:43:19;;;;;;;7.20;5.78;;;19.70;87.10;;;;;;4989464;28;20034;-78
2021/06/25 01:45:44;;;;;;;7.20;6.25;;;19.70;87.10;;;;;;4995274;28;20022;-79
2021/06/25 01:48:11;;;;;;;8.90;6.40;;;19.70;87.10;;;;;;4995800;28;20022;-78
2021/06/25 01:50:39;;;;;;;8.75;6.13;;;19.70;87.10;;;;;;4994929;28;20032;-79
2021/06/25 01:53:13;;;;;;;8.82;6.68;;;19.70;87.00;;;;;;4995463;28;20049;-78
2021/06/25 01:55:41;;;;;;;8.15;6.07;;;19.70;87.00;;;;;;4995343;28;20027;-78
2021/06/25 01:58:15;;;;;;;6.85;5.75;;;19.70;87.20;;;;;;4994725;28;20045;-78
2021/06/25 02:00:48;;;;;;;8.15;5.47;;;19.70;87.10;;;;;;4994678;28;20117;-78
2021/06/25 02:03:14;;;;;;;7.72;5.68;;;19.70;87.10;;;;;;4995118;28;20387;-78
2021/06/25 02:05:40;;;;;;;7.15;5.93;;;19.70;87.00;;;;;;4994772;28;20038;-78
2021/06/25 02:08:05;;;;;;;7.32;6.55;;;19.70;87.10;;;;;;4995220;28;20030;-79
2021/06/25 02:10:31;;;;;;;10.25;6.47;;;19.70;87.00;;;;;;4995120;28;20026;-79
2021/06/25 02:12:57;;;;;;;7.03;6.18;;;19.70;87.00;;;;;;4993095;28;20030;-78
2021/06/25 02:15:23;;;;;;;7.78;6.15;;;19.70;87.20;;;;;;4994190;28;20493;-77
2021/06/25 02:17:48;;;;;;;6.80;6.10;;;19.70;87.10;;;;;;4995446;28;20035;-76
2021/06/25 02:20:14;;;;;;;8.65;6.50;;;19.70;87.00;;;;;;4994998;28;20022;-77
2021/06/25 02:22:40;;;;;;;7.78;6.10;;;19.70;87.10;;;;;;4994753;28;20027;-78
2021/06/25 02:25:08;;;;;;;8.05;6.43;;;19.70;87.20;;;;;;4994861;28;20045;-79
2021/06/25 02:27:34;;;;;;;8.13;5.97;;;19.70;87.10;;;;;;4994557;28;20497;-78
2021/06/25 02:30:00;;;;;;;8.60;6.25;;;19.70;87.20;;;;;;4993106;28;20066;-80
2021/06/25 02:32:25;;;;;;;7.63;6.28;;;19.70;87.20;;;;;;4994704;28;20482;-79
2021/06/25 02:34:51;;;;;;;7.45;6.20;;;19.60;87.20;;;;;;4995067;28;20066;-81
2021/06/25 02:37:17;;;;;;;6.82;5.70;;;19.60;87.20;;;;;;4994757;28;20483;-79
2021/06/25 02:39:42;;;;;;;8.18;6.00;;;19.60;87.20;;;;;;4994324;28;20816;-79
2021/06/25 02:42:08;;;;;;;7.43;6.25;;;19.60;87.30;;;;;;4993571;28;20034;-79
2021/06/25 02:44:34;;;;;;;7.15;6.15;;;19.60;87.30;;;;;;4993693;28;20038;-79
2021/06/25 02:47:00;;;;;;;8.65;6.45;;;19.60;87.30;;;;;;4992446;28;20058;-78
2021/06/25 02:49:26;;;;;;;7.13;6.13;;;19.60;87.20;;;;;;4994288;28;20486;-77
2021/06/25 02:51:51;;;;;;;8.15;6.13;;;19.60;87.30;;;;;;4994814;28;20019;-78
2021/06/25 02:54:17;;;;;;;7.13;6.03;;;19.60;87.20;;;;;;4994581;28;20113;-78
2021/06/25 02:56:42;;;;;;;8.32;6.70;;;19.60;87.20;;;;;;4992843;28;20084;-80
2021/06/25 02:59:08;;;;;;;7.47;6.18;;;19.60;87.40;;;;;;4993741;28;20105;-80
2021/06/25 03:01:34;;;;;;;8.15;6.10;;;19.60;87.30;;;;;;4994017;28;20053;-79
2021/06/25 03:03:59;;;;;;;6.82;5.80;;;19.60;87.40;;;;;;4994036;28;20046;-79
2021/06/25 03:06:26;;;;;;;8.82;6.47;;;19.60;87.40;;;;;;4993999;28;20530;-79
2021/06/25 03:08:51;;;;;;;7.05;6.00;;;19.60;87.40;;;;;;4994388;28;20153;-79
2021/06/25 03:11:17;;;;;;;8.07;5.55;;;19.60;87.40;;;;;;4993654;28;20105;-79
2021/06/25 03:13:43;;;;;;;6.38;5.60;;;19.60;87.40;;;;;;4993527;28;20036;-79
2021/06/25 03:16:09;;;;;;;6.43;5.78;;;19.60;87.40;;;;;;4993801;28;20034;-78
2021/06/25 03:18:34;;;;;;;7.63;5.35;;;19.60;87.40;;;;;;4993744;28;20033;-79
2021/06/25 03:21:00;;;;;;;6.53;5.35;;;19.60;87.50;;;;;;4994021;28;20027;-78
2021/06/25 03:23:26;;;;;;;7.05;6.25;;;19.60;87.40;;;;;;4993748;28;20066;-78
2021/06/25 03:25:52;;;;;;;8.43;5.78;;;19.60;87.50;;;;;;4993258;28;20434;-78
2021/06/25 03:28:18;;;;;;;7.05;5.78;;;19.50;87.40;;;;;;4994044;28;20026;-78
2021/06/25 03:30:45;;;;;;;6.53;5.82;;;19.50;87.50;;;;;;4993468;28;20027;-78
2021/06/25 03:33:11;;;;;;;7.57;6.05;;;19.60;87.50;;;;;;4993621;28;20549;-78
2021/06/25 03:35:37;;;;;;;5.95;5.22;;;19.50;87.40;;;;;;4993398;28;20050;-79
2021/06/25 03:38:04;;;;;;;8.00;6.22;;;19.50;87.50;;;;;;4993673;28;20544;-78
2021/06/25 03:40:33;;;;;;;9.00;6.28;;;19.50;87.50;;;;;;5008440;28;20034;-79
2021/06/25 03:42:59;;;;;;;5.95;5.30;;;19.50;87.50;;;;;;4992504;28;20301;-78
2021/06/25 03:45:25;;;;;;;6.70;5.25;;;19.60;88.30;;;;;;4993314;28;20387;-78
2021/06/25 03:47:51;;;;;;;7.55;5.60;;;19.60;87.50;;;;;;4993692;28;20030;-79
2021/06/25 03:50:17;;;;;;;8.07;5.60;;;19.50;87.50;;;;;;4993592;28;20026;-80
2021/06/25 03:52:43;;;;;;;6.18;5.43;;;19.50;87.50;;;;;;4992985;28;20027;-80
2021/06/25 03:55:10;;;;;;;6.63;5.32;;;19.50;87.60;;;;;;4993106;28;20041;-78
2021/06/25 03:57:38;;;;;;;7.50;5.53;;;19.50;87.60;;;;;;4992991;28;20485;-80
2021/06/25 04:00:06;;;;;;;8.73;6.25;;;19.50;87.50;;;;;;4993102;28;20085;-80
2021/06/25 04:02:31;;;;;;;7.53;5.55;;;19.50;87.50;;;;;;4992722;28;20029;-79
2021/06/25 04:04:57;;;;;;;6.80;5.55;;;19.50;87.50;;;;;;4993103;28;20038;-79
2021/06/25 04:07:26;;;;;;;7.47;5.38;;;19.50;87.60;;;;;;4992669;28;20037;-79
2021/06/25 04:09:52;;;;;;;7.95;5.57;;;19.60;87.60;;;;;;4993464;28;20032;-79
2021/06/25 04:12:17;;;;;;;6.72;5.40;;;19.50;87.60;;;;;;4991466;28;20029;-79
2021/06/25 04:14:43;;;;;;;5.80;4.95;;;19.50;87.70;;;;;;4992023;28;20456;-79
2021/06/25 04:17:08;;;;;;;7.90;5.05;;;19.50;87.60;;;;;;4992907;28;20129;-79
2021/06/25 04:19:34;;;;;;;6.35;5.25;;;19.50;88.40;;;;;;4992642;28;20026;-79
2021/06/25 04:22:00;;;;;;;7.75;5.38;;;19.50;87.70;;;;;;4992660;28;20118;-80
2021/06/25 04:24:25;;;;;;;7.13;5.68;;;19.50;87.60;;;;;;4992555;28;20394;-79
2021/06/25 04:26:51;;;;;;;7.05;5.40;;;19.50;87.70;;;;;;4992778;28;20030;-79
2021/06/25 04:29:17;;;;;;;6.78;5.70;;;19.50;87.80;;;;;;4992745;28;20525;-80
2021/06/25 04:31:53;;;;;;;6.13;5.32;;;19.60;87.80;;;;;;4991926;28;20035;-80
2021/06/25 04:34:18;;;;;;;7.20;5.68;;;19.50;87.80;;;;;;4992160;28;20094;-78
2021/06/25 04:36:44;;;;;;;7.30;5.07;;;19.50;87.80;;;;;;4992043;28;20023;-79
2021/06/25 04:39:10;;;;;;;5.97;5.05;;;19.50;87.80;;;;;;4992162;28;20053;-79
2021/06/25 04:41:35;;;;;;;5.70;4.93;;;19.50;87.80;;;;;;4991405;28;20026;-79
2021/06/25 04:44:02;;;;;;;7.13;5.68;;;19.50;87.80;;;;;;4992235;28;20026;-79
2021/06/25 04:46:28;;;;;;;7.55;5.25;;;19.50;87.90;;;;;;4991960;28;20030;-79
2021/06/25 04:48:54;;;;;;;5.72;4.95;;;19.50;87.90;;;;;;4992492;28;20068;-78
2021/06/25 04:51:19;;;;;;;5.95;4.53;;;19.50;87.90;;;;;;4991995;28;20125;-78
2021/06/25 04:53:45;;;;;;;5.75;4.68;;;19.50;87.90;;;;;;4991938;28;20022;-78
2021/06/25 04:56:11;;;;;;;5.93;4.55;;;19.50;87.90;;;;;;5007344;28;20037;-78
2021/06/25 04:58:37;;;;;;;6.40;4.63;;;19.50;87.90;;;;;;4991928;28;20019;-78
2021/06/25 05:01:03;;;;;;;7.85;5.25;;;19.50;88.00;;;;;;4991424;28;20038;-79
2021/06/25 05:03:29;;;;;;;5.60;4.80;;;19.50;88.00;;;;;;4991553;28;20077;-77
2021/06/25 05:05:54;;;;;;;7.35;4.78;;;19.50;88.00;;;;;;4992285;28;20026;-77
2021/06/25 05:08:20;;;;;;;7.15;4.80;;;19.50;88.10;;;;;;4991786;28;20026;-79
2021/06/25 05:10:46;;;;;;;5.88;4.65;;;19.50;88.20;;;;;;4991682;28;20514;-79
2021/06/25 05:13:13;;;;;;;5.10;4.00;;;19.50;88.20;;;;;;4990581;28;20039;-77
2021/06/25 05:15:39;;;;;;;5.22;4.43;;;19.50;88.20;;;;;;4991741;28;20037;-78
2021/06/25 05:18:16;;;;;;;5.55;4.18;;;19.50;88.20;;;;;;4991059;28;20069;-78
2021/06/25 05:20:43;;;;;;;5.90;4.38;;;19.50;88.20;;;;;;4991616;28;20026;-78
2021/06/25 05:23:10;;;;;;;4.32;3.78;;;19.50;88.30;;;;;;4991661;28;20089;-78
2021/06/25 05:25:35;;;;;;;5.45;4.53;;;19.50;88.30;;;;;;4991539;28;20092;-77
2021/06/25 05:28:01;;;;;;;5.18;4.20;;;19.50;88.40;;;;;;4991708;28;20030;-78
2021/06/25 05:30:27;;;;;;;5.82;4.68;;;19.50;88.40;;;;;;4990829;28;20089;-78
2021/06/25 05:32:54;;;;;;;5.72;4.65;;;19.50;88.40;;;;;;5006480;28;20027;-78
2021/06/25 05:35:19;;;;;;;6.00;4.05;;;19.50;88.50;;;;;;4990798;28;20547;-77
2021/06/25 05:37:45;;;;;;;4.43;3.70;;;19.50;88.50;;;;;;4991523;28;20026;-78
2021/06/25 05:40:11;;;;;;;5.13;4.15;;;19.40;88.50;;;;;;4991529;28;20498;-78
2021/06/25 05:42:37;;;;;;;5.20;3.83;;;19.50;88.60;;;;;;4992023;28;20034;-78
2021/06/25 05:45:04;;;;;;;8.07;4.35;;;19.40;88.50;;;;;;4999285;28;20064;-78
2021/06/25 05:47:29;;;;;;;5.80;3.70;;;19.40;88.50;;;;;;4993357;28;20393;-78
2021/06/25 05:49:55;;;;;;;8.95;4.10;;;19.40;88.50;;;;;;4991467;28;20038;-77
2021/06/25 05:52:21;;;;;;;6.70;4.00;;;19.40;88.60;;;;;;4990739;28;20049;-79
2021/06/25 05:54:46;;;;;;;4.65;3.63;;;19.40;88.70;;;;;;4991336;28;20029;-77
2021/06/25 05:57:12;;;;;;;5.28;4.57;;;19.40;88.70;;;;;;4988731;28;20035;-78
2021/06/25 05:59:38;;;;;;;4.82;3.67;;;19.40;88.80;;;;;;4989239;28;20076;-81
2021/06/25 06:02:03;;;;;;;4.50;3.80;;;19.40;88.80;;;;;;4991426;28;20049;-79
2021/06/25 06:04:29;;;;;;;6.90;4.43;;;19.40;88.90;;;;;;4989295;28;20042;-79
2021/06/25 06:06:55;;;;;;;4.38;3.40;;;19.40;89.00;;;;;;4991082;28;20048;-81
2021/06/25 06:09:21;;;;;;;5.10;3.40;;;19.40;89.00;;;;;;4991030;28;20034;-79
2021/06/25 06:11:47;;;;;;;4.80;3.65;;;19.40;89.10;;;;;;4990581;28;20109;-85
2021/06/25 06:14:13;;;;;;;4.53;3.30;;;19.50;89.50;;;;;;4990035;28;20026;-83
2021/06/25 06:16:39;;;;;;;6.18;4.00;;;19.50;89.60;;;;;;4991266;28;20034;-85
2021/06/25 06:19:05;;;;;;;9.30;3.63;;;19.50;89.70;;;;;;5006505;28;20022;-80
2021/06/25 06:31:10;;;;;;;4.68;3.97;;;19.40;89.80;;;;;;4990320;28;20117;-80
2021/06/25 06:32:56;;;;;;;15.50;10.45;;;19.50;90.40;;;;;;4993915;28;20576;-78
2021/06/25 06:35:22;;;;;;;6.78;5.28;;;19.60;90.80;;;;;;4994196;28;20120;-80
2021/06/25 06:37:50;;;;;;;7.45;5.80;;;19.60;90.70;;;;;;4994529;28;20554;-78
2021/06/25 06:40:20;;;;;;;10.48;6.18;;;19.60;90.80;;;;;;4994249;28;20092;-81
2021/06/25 06:42:49;;;;;;;11.07;5.90;;;19.70;90.90;;;;;;4991085;28;20076;-79
2021/06/25 06:45:17;;;;;;;8.55;5.78;;;19.70;91.10;;;;;;4993834;28;20041;-80
2021/06/25 06:47:44;;;;;;;9.70;5.70;;;19.70;91.60;;;;;;4992730;28;20065;-82
2021/06/25 06:50:11;;;;;;;8.50;5.22;;;19.70;91.70;;;;;;4992241;28;20022;-81
2021/06/25 06:52:37;;;;;;;10.65;5.50;;;19.70;91.40;;;;;;4994160;28;20037;-81
2021/06/25 06:55:03;;;;;;;7.43;5.10;;;19.70;91.90;;;;;;4994559;28;20023;-78
2021/06/25 06:57:28;;;;;;;6.65;4.82;;;19.70;91.90;;;;;;4996532;28;20038;-82
2021/06/25 06:59:54;;;;;;;11.35;4.97;;;19.70;91.80;;;;;;5000783;28;20077;-80
2021/06/25 07:02:20;;;;;;;11.82;4.18;;;19.80;91.90;;;;;;4993073;28;20415;-75
2021/06/25 07:04:46;;;;;;;5.85;3.63;;;19.80;92.20;;;;;;4992361;28;20066;-77
2021/06/25 07:07:11;;;;;;;6.82;5.10;;;19.80;91.90;;;;;;4992463;28;20041;-77
2021/06/25 07:09:37;;;;;;;7.38;4.22;;;19.80;92.10;;;;;;5007482;28;20430;-77
2021/06/25 07:12:03;;;;;;;5.18;3.67;;;19.80;92.20;;;;;;4992624;28;20068;-79
2021/06/25 07:14:29;;;;;;;6.28;4.07;;;19.80;92.20;;;;;;4992034;28;20030;-79
2021/06/25 07:16:55;;;;;;;4.78;3.85;;;19.80;92.20;;;;;;4992427;28;20045;-74
2021/06/25 07:19:20;;;;;;;5.43;3.67;;;19.80;92.10;;;;;;4991512;28;20034;-75
2021/06/25 07:21:46;;;;;;;5.78;3.88;;;19.80;92.00;;;;;;4990830;28;20056;-74
2021/06/25 07:24:12;;;;;;;6.60;4.13;;;19.80;92.00;;;;;;4992514;28;20045;-75
2021/06/25 07:26:37;;;;;;;6.63;3.72;;;19.80;91.90;;;;;;4991981;28;20029;-75
2021/06/25 07:29:03;;;;;;;5.65;3.70;;;19.80;92.00;;;;;;4992448;28;20117;-76
2021/06/25 07:31:29;;;;;;;5.13;3.70;;;19.80;92.00;;;;;;4991933;28;20022;-79
2021/06/25 07:33:54;;;;;;;7.00;3.65;;;19.80;91.90;;;;;;4992178;28;20026;-79
2021/06/25 07:36:20;;;;;;;5.30;3.92;;;19.80;91.90;;;;;;4991453;28;20098;-78
2021/06/25 07:38:46;;;;;;;5.93;3.70;;;19.80;91.90;;;;;;4992003;28;20041;-79
2021/06/25 07:41:12;;;;;;;6.97;3.95;;;19.80;91.90;;;;;;4987990;28;20027;-78
2021/06/25 07:43:38;;;;;;;5.68;3.50;;;19.80;91.90;;;;;;4992382;28;20072;-78
2021/06/25 07:46:03;;;;;;;5.20;3.75;;;19.80;91.90;;;;;;5004596;28;20026;-78
2021/06/25 07:48:29;;;;;;;8.32;3.67;;;19.80;91.80;;;;;;4986687;28;20572;-78
2021/06/25 07:50:55;;;;;;;5.25;3.83;;;19.80;91.80;;;;;;4993371;28;20030;-78
2021/06/25 07:53:20;;;;;;;5.13;3.30;;;19.80;91.80;;;;;;4992395;28;20026;-78
2021/06/25 07:55:46;;;;;;;6.07;3.60;;;19.80;91.80;;;;;;4996545;28;20078;-78
2021/06/25 07:58:14;;;;;;;5.15;3.10;;;19.80;91.70;;;;;;4992658;28;20041;-78
2021/06/25 08:00:39;;;;;;;5.72;3.80;;;19.80;91.70;;;;;;4992744;28;20447;-77
2021/06/25 08:03:05;;;;;;;7.32;4.13;;;19.80;91.60;;;;;;4992997;28;20144;-78
2021/06/25 08:05:31;;;;;;;5.70;3.83;;;19.90;91.60;;;;;;4993188;28;20030;-79
2021/06/25 08:07:57;;;;;;;5.40;3.45;;;19.80;91.50;;;;;;4992948;28;20033;-77
2021/06/25 08:10:22;;;;;;;6.25;3.78;;;19.80;91.50;;;;;;5005712;28;20163;-79
2021/06/25 08:12:48;;;;;;;6.45;3.90;;;19.90;91.50;;;;;;5009583;28;20208;-78
2021/06/25 08:15:14;;;;;;;5.72;4.15;;;19.90;91.50;;;;;;4994310;28;20027;-79
2021/06/25 08:17:39;;;;;;;4.95;3.72;;;19.90;91.80;;;;;;4991899;28;20617;-80
2021/06/25 08:20:06;;;;;;;4.13;3.42;;;19.90;91.50;;;;;;4992661;28;20108;-79
2021/06/25 08:22:32;;;;;;;5.72;4.00;;;19.90;91.40;;;;;;4991146;28;20030;-79
2021/06/25 08:24:58;;;;;;;5.75;4.05;;;19.90;91.40;;;;;;4991566;28;20383;-79
2021/06/25 08:27:24;;;;;;;4.93;3.78;;;19.90;91.40;;;;;;4992327;28;20526;-81
2021/06/25 08:29:50;;;;;;;5.65;4.07;;;19.80;91.40;;;;;;4992469;28;20445;-81
2021/06/25 08:32:16;;;;;;;7.38;4.07;;;19.80;91.40;;;;;;4992682;28;20042;-81
2021/06/25 08:34:42;;;;;;;5.65;3.80;;;19.80;91.40;;;;;;4992084;28;20030;-80
2021/06/25 08:37:08;;;;;;;6.13;3.88;;;19.80;91.40;;;;;;4992517;28;20084;-79
2021/06/25 08:39:34;;;;;;;5.35;3.53;;;19.80;91.40;;;;;;4992411;28;20430;-77
2021/06/25 08:42:02;;;;;;;5.05;4.05;;;19.90;91.30;;;;;;4992302;28;20023;-79
2021/06/25 08:44:35;;;;;;;5.45;3.53;;;19.90;91.30;;;;;;4991680;28;20064;-80
2021/06/25 08:47:00;;;;;;;5.00;3.75;;;19.90;91.30;;;;;;4982290;28;20034;-80
2021/06/25 08:49:28;;;;;;;5.80;3.97;;;20.00;91.30;;;;;;4991639;28;20442;-79
2021/06/25 08:51:53;;;;;;;5.07;3.40;;;20.00;91.20;;;;;;4992401;28;20034;-80
2021/06/25 08:54:19;;;;;;;5.03;3.95;;;20.00;91.20;;;;;;4991724;28;20092;-80
2021/06/25 08:56:45;;;;;;;6.53;4.00;;;20.00;91.20;;;;;;4992317;28;20114;-78
2021/06/25 08:59:12;;;;;;;5.13;3.95;;;19.90;91.20;;;;;;4991922;28;20109;-78
2021/06/25 09:01:37;;;;;;;4.07;3.35;;;20.00;91.20;;;;;;4991951;28;20050;-78
2021/06/25 09:04:04;;;;;;;4.43;3.67;;;19.90;91.20;;;;;;4991753;28;20039;-80
2021/06/25 09:06:32;;;;;;;6.22;4.20;;;19.90;91.20;;;;;;4992081;28;20406;-78
2021/06/25 09:09:12;;;;;;;6.68;3.97;;;19.90;91.20;;;;;;4991442;28;20026;-78
2021/06/25 09:11:40;;;;;;;6.40;4.32;;;19.90;91.20;;;;;;5006055;28;20031;-78
2021/06/25 09:14:07;;;;;;;7.00;4.65;;;19.90;91.20;;;;;;4990853;28;20025;-79
2021/06/25 09:16:35;;;;;;;8.75;4.00;;;19.90;91.20;;;;;;4991028;28;20022;-78
2021/06/25 09:19:16;;;;;;;4.72;3.53;;;19.90;91.20;;;;;;4992146;28;20027;-80
2021/06/25 09:21:57;;;;;;;5.43;4.30;;;19.90;91.20;;;;;;4991631;28;20426;-79
2021/06/25 09:24:25;;;;;;;5.65;4.15;;;19.90;91.20;;;;;;4993833;28;20035;-79
2021/06/25 09:27:00;;;;;;;8.18;3.88;;;19.90;91.20;;;;;;4993669;28;20027;-81
2021/06/25 09:29:33;;;;;;;5.35;4.30;;;19.90;91.10;;;;;;4990498;28;20502;-80
2021/06/25 09:32:01;;;;;;;6.55;4.38;;;20.00;91.10;;;;;;4991033;28;20030;-77
2021/06/25 09:34:41;;;;;;;7.30;4.32;;;19.90;91.00;;;;;;4994097;28;20034;-78
2021/06/25 09:37:09;;;;;;;5.18;4.00;;;20.00;90.90;;;;;;5006153;28;20562;-77
2021/06/25 09:39:35;;;;;;;5.60;3.88;;;20.00;90.90;;;;;;4993522;28;20022;-77
2021/06/25 09:42:01;;;;;;;5.55;4.90;;;20.00;91.00;;;;;;4994695;28;20032;-79
2021/06/25 09:44:27;;;;;;;6.22;4.25;;;20.00;91.00;;;;;;4990886;28;20172;-79
2021/06/25 09:46:54;;;;;;;5.75;4.57;;;20.10;90.90;;;;;;4991416;28;20034;-81
2021/06/25 09:49:25;;;;;;;6.80;5.00;;;20.00;90.80;;;;;;4982415;28;20030;-80
2021/06/25 09:51:59;;;;;;;5.70;4.55;;;20.00;90.80;;;;;;4990947;28;20022;-79
2021/06/25 09:54:26;;;;;;;7.00;4.55;;;20.10;90.80;;;;;;4991255;28;20045;-79
2021/06/25 09:57:10;;;;;;;6.25;4.80;;;20.10;90.90;;;;;;4990331;28;20033;-78
2021/06/25 10:02:18;;;;;;;9.25;5.32;;;20.10;90.90;;;;;;4989171;28;20042;-78
2021/06/25 10:04:45;;;;;;;7.45;5.20;;;20.00;90.90;;;;;;4990628;28;20035;-79
2021/06/25 10:07:19;;;;;;;7.50;5.30;;;20.00;90.90;;;;;;4993814;28;20018;-79
2021/06/25 10:09:47;;;;;;;8.43;5.70;;;20.00;91.00;;;;;;4991579;28;20030;-79
2021/06/25 10:12:15;;;;;;;5.45;4.63;;;20.10;91.00;;;;;;4992483;28;20026;-78
2021/06/25 10:14:43;;;;;;;6.68;5.07;;;20.00;91.10;;;;;;4991312;28;20096;-81
2021/06/25 10:17:09;;;;;;;6.40;5.43;;;20.00;91.10;;;;;;4993483;28;20033;-80
2021/06/25 10:19:37;;;;;;;6.00;5.00;;;20.10;91.20;;;;;;4993755;28;20490;-81
2021/06/25 10:22:04;;;;;;;6.60;4.80;;;20.10;91.20;;;;;;4993873;28;20018;-85
2021/06/25 10:24:33;;;;;;;6.97;4.88;;;20.10;91.10;;;;;;4993150;28;20058;-83
2021/06/25 10:27:01;;;;;;;6.95;4.88;;;20.10;91.10;;;;;;4993584;28;20090;-82
2021/06/25 10:29:28;;;;;;;6.07;5.28;;;20.10;91.10;;;;;;4991935;28;20064;-80
2021/06/25 10:31:56;;;;;;;8.38;5.13;;;20.20;91.10;;;;;;4993566;28;20442;-84
2021/06/25 10:34:22;;;;;;;9.15;4.85;;;20.20;91.10;;;;;;4993367;28;20389;-78
2021/06/25 10:36:50;;;;;;;7.05;4.45;;;20.20;91.20;;;;;;4994091;28;20022;-77
2021/06/25 10:39:16;;;;;;;6.72;5.25;;;20.20;91.50;;;;;;4993423;28;20117;-76
2021/06/25 10:41:48;;;;;;;7.25;5.28;;;20.20;91.60;;;;;;4993388;28;20438;-77
2021/06/25 10:44:33;;;;;;;6.03;5.25;;;20.20;92.30;;;;;;4993129;28;20490;-81
2021/06/25 10:47:25;;;;;;;8.05;5.78;;;20.20;92.30;;;;;;4992926;28;20502;-76
2021/06/25 10:50:00;;;;;;;7.85;5.22;;;20.30;92.40;;;;;;4991156;28;20446;-77
2021/06/25 10:52:26;;;;;;;7.33;5.13;;;20.30;92.50;;;;;;4990524;28;20022;-74
2021/06/25 10:55:12;;;;;;;7.35;5.15;;;20.40;92.70;;;;;;4992021;28;20328;-80
2021/06/25 10:57:58;;;;;;;5.78;5.20;;;20.40;92.30;;;;;;4991155;28;20406;-80
2021/06/25 11:00:51;;;;;;;6.97;5.43;;;20.40;92.10;;;;;;4991582;28;20034;-75
2021/06/25 11:03:37;;;;;;;6.80;5.18;;;20.40;92.20;;;;;;4990899;28;20100;-79
2021/06/25 11:06:05;;;;;;;;;;;20.40;92.20;;;;;;4992476;28;20056;-75
2021/06/25 11:08:31;;;;;;;12.35;5.40;;;20.40;92.40;;;;;;4993130;28;19917;-73
2021/06/25 11:10:58;;;;;;;12.80;5.63;;;20.40;92.30;;;;;;4992517;28;20084;-77
2021/06/25 11:13:28;;;;;;;11.82;5.63;;;20.60;92.70;;;;;;4992310;28;20029;-76
2021/06/25 11:16:03;;;;;;;9.98;6.55;;;20.60;92.40;;;;;;4991842;28;20023;-76
2021/06/25 11:18:31;;;;;;;10.75;5.72;;;20.70;92.20;;;;;;4990828;28;20029;-75
2021/06/25 11:20:58;;;;;;;8.93;5.63;;;20.80;92.30;;;;;;4992141;28;20395;-75
2021/06/25 11:23:27;;;;;;;12.05;6.63;;;20.90;92.50;;;;;;4992962;28;20027;-89
2021/06/25 11:26:00;;;;;;;19.13;6.82;;;20.70;93.80;;;;;;5010779;28;20042;-87
2021/06/25 11:28:36;;;;;;;10.45;6.70;;;20.70;94.00;;;;;;4994119;28;20478;-86
2021/06/25 11:31:13;;;;;;;12.65;7.57;;;20.60;94.80;;;;;;4994388;28;20036;-85
2021/06/25 11:33:49;;;;;;;13.88;7.03;;;20.60;94.40;;;;;;4994284;28;20475;-86
2021/06/25 11:36:39;;;;;;;10.05;7.00;;;20.60;94.80;;;;;;5011804;28;20050;-81
2021/06/25 11:39:17;;;;;;;13.05;7.75;;;20.60;94.80;;;;;;5005013;28;20054;-84
2021/06/25 11:42:01;;;;;;;14.95;8.60;;;20.60;95.10;;;;;;4993876;28;20109;-87
2021/06/25 11:44:36;;;;;;;15.65;8.57;;;20.60;95.80;;;;;;4991653;28;20121;-84
2021/06/25 11:47:05;;;;;;;24.50;13.07;;;20.60;95.10;;;;;;4993739;28;20019;-84
2021/06/25 11:49:38;;;;;;;14.25;9.45;;;20.60;95.80;;;;;;5008736;28;20319;-84
2021/06/25 11:52:12;;;;;;;19.70;10.48;;;20.60;95.50;;;;;;4993855;28;20022;-84
2021/06/25 11:54:39;;;;;;;16.52;9.38;;;20.70;95.80;;;;;;4993979;28;20022;-84
2021/06/25 11:57:14;;;;;;;20.08;10.63;;;20.70;95.30;;;;;;4993030;28;20068;-88
2021/06/25 11:59:39;;;;;;;19.88;10.35;;;20.70;95.90;;;;;;4991634;28;20262;-86
2021/06/25 12:02:05;;;;;;;15.95;9.63;;;20.70;96.40;;;;;;4992623;28;20552;-86
2021/06/25 12:04:42;;;;;;;18.50;10.05;;;20.70;95.80;;;;;;4991075;28;20049;-83
2021/06/25 12:07:13;;;;;;;13.60;8.68;;;20.70;95.70;;;;;;4999211;28;20030;-86
2021/06/25 12:09:49;;;;;;;19.33;8.88;;;20.70;95.40;;;;;;4992067;28;20477;-86
2021/06/25 12:12:27;;;;;;;13.88;9.10;;;20.70;95.40;;;;;;4991929;28;20105;-87
2021/06/25 12:15:01;;;;;;;17.90;7.68;;;20.70;95.50;;;;;;4989828;28;20785;-87
2021/06/25 12:17:42;;;;;;;15.63;9.15;;;20.70;95.40;;;;;;4991732;28;20049;-87
2021/06/25 12:20:19;;;;;;;13.77;8.27;;;20.70;95.30;;;;;;4994158;28;20045;-88
2021/06/25 12:22:54;;;;;;;11.13;7.15;;;20.70;95.30;;;;;;4993047;28;20033;-81
2021/06/25 12:25:49;;;;;;;10.77;7.53;;;20.70;95.40;;;;;;5007180;28;20054;-89
2021/06/25 12:28:17;;;;;;;12.68;7.35;;;20.70;95.30;;;;;;4991088;28;20457;-87
2021/06/25 12:30:48;;;;;;;12.70;7.07;;;20.70;95.10;;;;;;5007747;28;20092;-86
2021/06/25 12:33:16;;;;;;;11.35;6.93;;;20.70;95.10;;;;;;4992799;28;20486;-88
2021/06/25 12:35:51;;;;;;;10.23;7.25;;;20.70;95.00;;;;;;4992219;28;20085;-87
2021/06/25 12:38:19;;;;;;;12.55;6.97;;;20.70;95.10;;;;;;4991684;28;20027;-87
2021/06/25 12:40:55;;;;;;;11.07;6.32;;;20.70;95.00;;;;;;4991499;28;20030;-87
2021/06/25 12:43:31;;;;;;;10.20;6.43;;;20.70;95.10;;;;;;4991609;28;20018;-89
2021/06/25 12:46:14;;;;;;;13.75;6.93;;;20.70;95.10;;;;;;5022339;28;20045;-86
2021/06/25 12:48:40;;;;;;;9.13;6.00;;;20.70;95.00;;;;;;4990577;28;20041;-87
2021/06/25 12:51:28;;;;;;;9.13;6.85;;;20.70;94.90;;;;;;4992238;28;20030;-87
2021/06/25 12:53:59;;;;;;;9.90;6.15;;;20.70;94.90;;;;;;4989655;28;20038;-86
2021/06/25 12:56:36;;;;;;;9.02;6.38;;;20.70;94.90;;;;;;4991791;28;20050;-86
2021/06/25 12:59:05;;;;;;;8.93;6.30;;;20.70;94.80;;;;;;4990688;28;20034;-86
2021/06/25 13:01:36;;;;;;;9.88;6.03;;;20.70;95.00;;;;;;4991162;28;20088;-87